Time;durP1;ratioP1;P1;durP2;ratioP2;P2;SDS_P1;SDS_P2;PMS_P1;PMS_P2;Temp;Humidity;BMP_temperature;BMP_pressure;BME280_temperature;BME280_humidity;BME280_pressure;Samples;Min_cycle;Max_cycle;Signal;HPM_P1;HPM_P2
2022/01/30 00:02:10;;;;;;;0.50;0.50;;;18.80;36.20;;;;;;5168365;27;47898;-15
2022/01/30 00:04:36;;;;;;;0.45;0.45;;;18.80;36.10;;;;;;5168490;27;47446;-15
2022/01/30 00:07:03;;;;;;;0.60;0.50;;;18.80;36.10;;;;;;5168508;27;46997;-15
2022/01/30 00:09:31;;;;;;;0.60;0.60;;;18.80;36.10;;;;;;5168744;27;46921;-14
2022/01/30 00:12:01;;;;;;;0.60;0.52;;;18.80;36.20;;;;;;5168118;27;48280;-14
2022/01/30 00:14:31;;;;;;;0.50;0.50;;;18.80;36.20;;;;;;5168465;27;46995;-15
2022/01/30 00:17:04;;;;;;;0.47;0.47;;;18.80;36.10;;;;;;5168507;27;46989;-15
2022/01/30 00:19:36;;;;;;;0.40;0.40;;;18.80;36.10;;;;;;5168421;27;46925;-14
2022/01/30 00:22:15;;;;;;;0.50;0.50;;;18.80;36.10;;;;;;5167992;27;48025;-15
2022/01/30 00:24:49;;;;;;;0.47;0.47;;;18.80;36.10;;;;;;5168240;27;46877;-15
2022/01/30 00:27:19;;;;;;;0.40;0.40;;;18.80;36.20;;;;;;5168097;27;46796;-15
2022/01/30 00:29:46;;;;;;;0.55;0.55;;;18.80;36.20;;;;;;5168437;27;46922;-15
2022/01/30 00:32:13;;;;;;;0.60;0.60;;;18.80;36.10;;;;;;5167585;27;47844;-15
2022/01/30 00:34:39;;;;;;;0.55;0.55;;;18.80;36.10;;;;;;5167914;27;47054;-16
2022/01/30 00:37:06;;;;;;;0.45;0.45;;;18.80;36.20;;;;;;5168048;27;47000;-15
2022/01/30 00:39:33;;;;;;;0.52;0.52;;;18.80;36.20;;;;;;5168186;27;46906;-15
2022/01/30 00:42:01;;;;;;;0.50;0.50;;;18.80;36.20;;;;;;5167631;27;48366;-15
2022/01/30 00:44:28;;;;;;;0.35;0.35;;;18.80;36.20;;;;;;5167909;27;46825;-14
2022/01/30 00:46:55;;;;;;;0.93;0.47;;;18.80;36.20;;;;;;5167874;27;46883;-15
2022/01/30 00:49:22;;;;;;;0.30;0.30;;;18.80;36.20;;;;;;5168209;27;47012;-15
2022/01/30 00:51:49;;;;;;;0.38;0.38;;;18.80;36.20;;;;;;5167769;27;49090;-15
2022/01/30 00:54:15;;;;;;;0.50;0.50;;;18.80;36.20;;;;;;5167960;27;47101;-15
2022/01/30 00:56:42;;;;;;;0.40;0.40;;;18.80;36.20;;;;;;5167954;27;47017;-14
2022/01/30 00:59:10;;;;;;;0.35;0.35;;;18.80;36.20;;;;;;5167953;27;47219;-15
2022/01/30 01:01:37;;;;;;;0.40;0.40;;;18.80;36.30;;;;;;5167684;27;47039;-14
2022/01/30 01:04:04;;;;;;;0.40;0.40;;;18.70;36.20;;;;;;5167708;27;46912;-15
2022/01/30 01:06:30;;;;;;;0.40;0.40;;;18.80;36.30;;;;;;5171242;27;47064;-15
2022/01/30 01:09:00;;;;;;;0.30;0.30;;;18.80;36.30;;;;;;5171603;27;46924;-15
2022/01/30 01:25:08;;;;;;;0.30;0.30;;;18.80;36.20;;;;;;5168075;27;46955;-15
2022/01/30 01:27:34;;;;;;;0.38;0.38;;;18.80;36.20;;;;;;5170902;27;46931;-15
2022/01/30 01:30:02;;;;;;;0.40;0.40;;;18.80;36.20;;;;;;5171070;27;46895;-15
2022/01/30 01:32:29;;;;;;;0.40;0.40;;;18.80;36.20;;;;;;5169952;27;48103;-15
2022/01/30 01:34:56;;;;;;;0.30;0.30;;;18.80;36.20;;;;;;5170818;27;47197;-15
2022/01/30 01:37:23;;;;;;;0.30;0.30;;;18.80;36.20;;;;;;5170964;27;47047;-15
2022/01/30 01:39:49;;;;;;;0.40;0.40;;;18.80;36.20;;;;;;5170908;27;46886;-16
2022/01/30 01:42:16;;;;;;;0.38;0.38;;;18.70;36.20;;;;;;5170114;27;47045;-15
2022/01/30 01:44:47;;;;;;;0.50;0.50;;;18.80;36.20;;;;;;5170549;27;47139;-15
2022/01/30 01:47:17;;;;;;;0.30;0.30;;;18.80;36.20;;;;;;5170375;27;47080;-15
2022/01/30 01:49:46;;;;;;;0.47;0.47;;;18.80;36.20;;;;;;5170812;27;46919;-15
2022/01/30 01:52:19;;;;;;;0.30;0.30;;;18.80;36.20;;;;;;5170473;27;48161;-14
2022/01/30 01:54:47;;;;;;;0.40;0.40;;;18.80;36.20;;;;;;5170757;27;46960;-14
2022/01/30 01:57:14;;;;;;;0.40;0.40;;;18.80;36.30;;;;;;5170366;27;46814;-14
2022/01/30 01:59:41;;;;;;;0.40;0.40;;;18.80;36.20;;;;;;5170672;27;46886;-15
2022/01/30 02:02:07;;;;;;;0.38;0.38;;;18.80;36.30;;;;;;5170259;27;48793;-15
2022/01/30 02:04:37;;;;;;;0.38;0.38;;;18.80;36.20;;;;;;5170328;27;46785;-15
2022/01/30 02:07:28;;;;;;;0.35;0.35;;;18.80;36.20;;;;;;5170142;27;46947;-14
2022/01/30 02:09:55;;;;;;;0.30;0.30;;;18.80;36.20;;;;;;5170568;27;47235;-15
2022/01/30 02:12:29;;;;;;;0.30;0.30;;;18.80;36.70;;;;;;5169982;27;46882;-14
2022/01/30 02:15:10;;;;;;;0.32;0.32;;;18.90;36.10;;;;;;5170415;27;46818;-15
2022/01/30 02:25:58;;;;;;;0.20;0.20;;;18.80;36.20;;;;;;5170452;27;46823;-16
2022/01/30 02:28:26;;;;;;;0.30;0.30;;;18.80;36.20;;;;;;5169778;27;46904;-15
2022/01/30 02:30:59;;;;;;;0.38;0.38;;;18.80;36.20;;;;;;5169826;27;46884;-15
2022/01/30 02:33:25;;;;;;;0.30;0.30;;;18.80;36.20;;;;;;5169371;27;47886;-15
2022/01/30 02:35:52;;;;;;;0.50;0.50;;;18.80;36.30;;;;;;5169573;27;46811;-15
2022/01/30 02:38:20;;;;;;;0.30;0.30;;;18.70;36.20;;;;;;5169425;27;47075;-15
2022/01/30 02:40:49;;;;;;;0.50;0.50;;;18.70;36.30;;;;;;5169947;27;46872;-15
2022/01/30 02:43:20;;;;;;;0.30;0.30;;;18.70;36.30;;;;;;5169337;27;48086;-15
2022/01/30 02:45:58;;;;;;;0.30;0.30;;;18.70;36.30;;;;;;5169521;27;46947;-14
2022/01/30 02:48:32;;;;;;;0.28;0.28;;;18.70;36.30;;;;;;5169625;27;46891;-15
2022/01/30 02:51:10;;;;;;;0.38;0.38;;;18.70;36.30;;;;;;5169615;27;47163;-15
2022/01/30 02:53:41;;;;;;;0.30;0.30;;;18.70;36.40;;;;;;5169551;27;47921;-15
2022/01/30 02:56:08;;;;;;;0.40;0.40;;;18.70;36.40;;;;;;5169222;27;46921;-16
2022/01/30 02:58:34;;;;;;;0.30;0.30;;;18.70;36.40;;;;;;5169167;27;46911;-15
2022/01/30 03:01:01;;;;;;;0.30;0.30;;;18.70;36.40;;;;;;5169727;27;46942;-14
2022/01/30 03:03:28;;;;;;;0.30;0.30;;;18.60;36.40;;;;;;5169381;27;46869;-15
2022/01/30 03:05:55;;;;;;;0.30;0.30;;;18.70;36.40;;;;;;5169498;27;46993;-15
2022/01/30 03:08:21;;;;;;;0.20;0.20;;;18.70;36.40;;;;;;5168994;27;46943;-14
2022/01/30 03:10:49;;;;;;;0.30;0.30;;;18.70;36.40;;;;;;5169580;27;47230;-16
2022/01/30 03:13:16;;;;;;;0.20;0.20;;;18.60;36.40;;;;;;5169073;27;48076;-15
2022/01/30 03:15:43;;;;;;;0.20;0.20;;;18.60;36.50;;;;;;5169351;27;46901;-14
2022/01/30 03:18:09;;;;;;;0.60;0.45;;;18.60;36.40;;;;;;5168631;27;46805;-15
2022/01/30 03:20:36;;;;;;;0.30;0.30;;;18.60;36.40;;;;;;5169292;27;47386;-15
2022/01/30 03:23:03;;;;;;;0.13;0.13;;;18.60;36.40;;;;;;5168885;27;47918;-15
2022/01/30 03:25:32;;;;;;;0.30;0.30;;;18.60;36.40;;;;;;5169086;27;46804;-15
2022/01/30 03:28:01;;;;;;;0.20;0.20;;;18.70;36.50;;;;;;5167589;27;46845;-15
2022/01/30 03:30:30;;;;;;;0.38;0.38;;;18.70;36.50;;;;;;5169185;27;46903;-14
2022/01/30 03:32:56;;;;;;;0.20;0.20;;;18.60;36.30;;;;;;5167789;27;48125;-14
2022/01/30 03:35:23;;;;;;;0.30;0.30;;;18.60;36.40;;;;;;5168678;27;46888;-15
2022/01/30 03:37:50;;;;;;;0.10;0.10;;;18.60;36.40;;;;;;5168590;27;46816;-15
2022/01/30 03:40:17;;;;;;;0.10;0.10;;;18.60;36.40;;;;;;5169120;27;47166;-15
2022/01/30 03:42:44;;;;;;;0.30;0.30;;;18.60;36.40;;;;;;5168625;27;46907;-15
2022/01/30 03:45:13;;;;;;;0.20;0.20;;;18.60;36.40;;;;;;5168850;27;47491;-15
2022/01/30 03:47:39;;;;;;;0.30;0.30;;;18.60;36.40;;;;;;5168609;27;46882;-15
2022/01/30 03:50:07;;;;;;;0.30;0.30;;;18.60;37.00;;;;;;5168711;27;46816;-15
2022/01/30 03:52:33;;;;;;;0.20;0.20;;;18.60;36.40;;;;;;5168698;27;48239;-15
2022/01/30 03:55:00;;;;;;;0.20;0.20;;;18.60;36.40;;;;;;5168342;27;46831;-16
2022/01/30 03:57:27;;;;;;;0.30;0.30;;;18.60;36.40;;;;;;5168380;27;46832;-14
2022/01/30 03:59:53;;;;;;;0.45;0.45;;;18.60;36.40;;;;;;5168548;27;47166;-15
2022/01/30 04:02:21;;;;;;;0.30;0.30;;;18.60;36.50;;;;;;5168260;27;47697;-14
2022/01/30 04:04:48;;;;;;;0.25;0.25;;;18.60;36.50;;;;;;5168475;27;47310;-15
2022/01/30 04:07:15;;;;;;;0.30;0.30;;;18.60;36.50;;;;;;5168359;27;46909;-15
2022/01/30 04:09:42;;;;;;;0.22;0.22;;;18.60;36.50;;;;;;5168754;27;46965;-15
2022/01/30 04:12:11;;;;;;;0.20;0.20;;;18.60;36.50;;;;;;5168219;27;47816;-15
2022/01/30 04:14:38;;;;;;;0.20;0.20;;;18.60;36.50;;;;;;5168053;27;46908;-15
2022/01/30 04:17:06;;;;;;;0.20;0.20;;;18.60;36.50;;;;;;5167961;27;46968;-15
2022/01/30 04:19:34;;;;;;;0.20;0.20;;;18.60;36.50;;;;;;5168453;27;46914;-15
2022/01/30 04:22:01;;;;;;;0.10;0.10;;;18.60;36.40;;;;;;5167724;27;47929;-15
2022/01/30 04:24:28;;;;;;;0.20;0.20;;;18.60;36.50;;;;;;5168334;27;46898;-15
2022/01/30 04:26:55;;;;;;;0.20;0.20;;;18.60;36.50;;;;;;5167946;27;46834;-15
2022/01/30 04:29:22;;;;;;;0.20;0.20;;;18.60;36.50;;;;;;5168277;27;47255;-15
2022/01/30 04:31:49;;;;;;;0.30;0.30;;;18.60;36.50;;;;;;5167327;27;46854;-15
2022/01/30 04:34:17;;;;;;;0.20;0.20;;;18.60;36.50;;;;;;5167853;27;46846;-15
2022/01/30 04:36:58;;;;;;;0.20;0.20;;;18.60;36.50;;;;;;5168170;27;46889;-15
2022/01/30 04:39:40;;;;;;;0.10;0.10;;;18.60;36.40;;;;;;5168552;27;47087;-14
2022/01/30 04:42:29;;;;;;;0.28;0.28;;;18.60;36.50;;;;;;5171754;27;47857;-15
2022/01/30 04:53:21;;;;;;;0.20;0.20;;;18.70;36.40;;;;;;5171034;27;47176;-15
2022/01/30 04:56:39;;;;;;;0.10;0.10;;;18.70;36.40;;;;;;5171723;27;46954;-15
2022/01/30 04:59:10;;;;;;;0.20;0.20;;;18.70;36.40;;;;;;5170839;27;46856;-14
2022/01/30 05:01:51;;;;;;;0.20;0.20;;;18.70;36.30;;;;;;5171461;27;46796;-15
2022/01/30 05:04:25;;;;;;;0.20;0.20;;;18.80;36.30;;;;;;5171459;27;47928;-15
2022/01/30 05:07:26;;;;;;;0.20;0.20;;;18.70;36.30;;;;;;5171397;27;47036;-15
2022/01/30 05:09:42;;;;;;;0.15;0.15;;;18.80;36.40;;;;;;5170961;27;46887;-15
2022/01/30 05:12:10;;;;;;;0.20;0.20;;;18.70;36.30;;;;;;5171250;27;47056;-15
2022/01/30 05:14:37;;;;;;;0.20;0.20;;;18.80;36.30;;;;;;5170965;27;46886;-14
2022/01/30 05:17:05;;;;;;;0.08;0.08;;;18.80;36.30;;;;;;5171079;27;47220;-15
2022/01/30 05:19:32;;;;;;;0.30;0.30;;;18.70;36.20;;;;;;5170990;27;46799;-15
2022/01/30 05:22:00;;;;;;;0.30;0.30;;;18.80;36.30;;;;;;5171173;27;46921;-15
2022/01/30 05:24:27;;;;;;;0.30;0.30;;;18.80;36.30;;;;;;5171033;27;48139;-15
2022/01/30 05:26:55;;;;;;;0.15;0.15;;;18.80;36.30;;;;;;5170824;27;47576;-14
2022/01/30 05:29:22;;;;;;;0.40;0.40;;;18.80;36.30;;;;;;5170742;27;46890;-15
2022/01/30 05:31:49;;;;;;;0.28;0.28;;;18.80;36.30;;;;;;5170550;27;46960;-15
2022/01/30 05:34:16;;;;;;;0.10;0.10;;;18.80;36.30;;;;;;5170952;27;48052;-15
2022/01/30 05:36:43;;;;;;;0.13;0.13;;;18.80;36.30;;;;;;5170819;27;46885;-14
2022/01/30 05:39:10;;;;;;;0.20;0.20;;;18.80;36.30;;;;;;5170913;27;46810;-15
2022/01/30 05:41:37;;;;;;;0.20;0.20;;;18.80;36.40;;;;;;5170886;27;46931;-15
2022/01/30 05:44:11;;;;;;;0.20;0.20;;;18.80;36.40;;;;;;5170894;27;46867;-16
2022/01/30 05:46:43;;;;;;;0.20;0.20;;;18.80;36.40;;;;;;5170740;27;47018;-15
2022/01/30 05:49:10;;;;;;;0.20;0.20;;;18.80;36.40;;;;;;5170896;27;46849;-15
2022/01/30 05:51:36;;;;;;;0.10;0.10;;;18.70;36.40;;;;;;5169249;27;46885;-15
2022/01/30 05:54:03;;;;;;;0.30;0.30;;;18.70;36.30;;;;;;5170189;27;47902;-15
2022/01/30 05:56:30;;;;;;;0.20;0.20;;;18.80;36.40;;;;;;5170332;27;47166;-14
2022/01/30 05:58:57;;;;;;;0.10;0.10;;;18.70;36.40;;;;;;5170468;27;46815;-15
2022/01/30 06:01:25;;;;;;;0.20;0.20;;;18.70;36.40;;;;;;5170810;27;47094;-15
2022/01/30 06:03:51;;;;;;;0.10;0.10;;;18.70;36.40;;;;;;5170364;27;48402;-14
2022/01/30 06:06:18;;;;;;;0.10;0.10;;;18.70;36.40;;;;;;5170322;27;47431;-15
2022/01/30 06:08:56;;;;;;;0.20;0.20;;;18.70;36.40;;;;;;5170479;27;47015;-14
2022/01/30 06:11:23;;;;;;;0.20;0.20;;;18.70;36.50;;;;;;5170277;27;46912;-19
2022/01/30 06:13:50;;;;;;;0.22;0.22;;;18.70;36.50;;;;;;5169941;27;47069;-15
2022/01/30 06:16:16;;;;;;;0.20;0.20;;;18.70;36.50;;;;;;5170096;27;46825;-14
2022/01/30 06:18:44;;;;;;;0.10;0.10;;;18.70;36.50;;;;;;5169880;27;47006;-15
2022/01/30 06:21:11;;;;;;;0.30;0.30;;;18.70;36.50;;;;;;5170263;27;46920;-15
2022/01/30 06:23:40;;;;;;;0.30;0.20;;;18.70;36.50;;;;;;5170180;27;47078;-14
2022/01/30 06:26:06;;;;;;;0.10;0.10;;;18.70;36.50;;;;;;5169631;27;46898;-14
2022/01/30 06:28:33;;;;;;;0.20;0.17;;;18.70;36.50;;;;;;5170038;27;46814;-15
2022/01/30 06:31:00;;;;;;;0.10;0.10;;;18.70;36.50;;;;;;5169976;27;46867;-15
2022/01/30 06:33:27;;;;;;;0.17;0.15;;;18.70;36.60;;;;;;5169269;27;48092;-14
2022/01/30 06:35:55;;;;;;;0.13;0.13;;;18.70;36.50;;;;;;5170076;27;47064;-14
2022/01/30 06:38:22;;;;;;;0.20;0.20;;;18.70;36.60;;;;;;5169707;27;46904;-15
2022/01/30 06:40:48;;;;;;;0.25;0.25;;;18.70;36.60;;;;;;5169670;27;46945;-16
2022/01/30 06:43:15;;;;;;;0.20;0.20;;;18.70;36.60;;;;;;5169789;27;48726;-15
2022/01/30 06:45:43;;;;;;;0.20;0.20;;;18.70;36.60;;;;;;5169795;27;46834;-16
2022/01/30 06:48:09;;;;;;;0.20;0.20;;;18.70;36.60;;;;;;5169451;27;46963;-15
2022/01/30 06:50:36;;;;;;;0.20;0.20;;;18.70;36.60;;;;;;5169906;27;46898;-14
2022/01/30 06:53:04;;;;;;;0.20;0.20;;;18.70;36.60;;;;;;5169428;27;49075;-14
2022/01/30 06:55:31;;;;;;;0.20;0.20;;;18.60;36.60;;;;;;5169402;27;46931;-15
2022/01/30 06:57:57;;;;;;;0.20;0.20;;;18.60;36.60;;;;;;5169518;27;46902;-16
2022/01/30 07:00:24;;;;;;;0.10;0.10;;;18.70;36.70;;;;;;5169852;27;46882;-15
2022/01/30 07:02:51;;;;;;;0.20;0.20;;;18.60;36.60;;;;;;5168641;27;48142;-15
2022/01/30 07:05:17;;;;;;;0.10;0.10;;;18.70;36.70;;;;;;5169422;27;47294;-15
2022/01/30 07:07:44;;;;;;;0.28;0.28;;;18.70;36.70;;;;;;5169281;27;47040;-14
2022/01/30 07:10:12;;;;;;;0.10;0.10;;;18.70;36.70;;;;;;5169322;27;46912;-14
2022/01/30 07:12:39;;;;;;;0.20;0.20;;;18.60;36.60;;;;;;5168750;27;46856;-15
2022/01/30 07:15:06;;;;;;;0.20;0.20;;;18.70;36.70;;;;;;5168951;27;46808;-15
2022/01/30 07:17:33;;;;;;;0.30;0.30;;;18.60;36.60;;;;;;5168867;27;46824;-15
2022/01/30 07:19:59;;;;;;;0.17;0.17;;;18.60;36.60;;;;;;5169261;27;46885;-14
2022/01/30 07:22:27;;;;;;;0.20;0.20;;;18.60;36.60;;;;;;5168670;27;49051;-15
2022/01/30 07:24:54;;;;;;;0.20;0.20;;;18.60;36.60;;;;;;5169313;27;46936;-15
2022/01/30 07:27:22;;;;;;;0.32;0.32;;;18.60;36.60;;;;;;5169083;27;46907;-14
2022/01/30 07:29:49;;;;;;;0.20;0.20;;;18.60;36.60;;;;;;5169203;27;47192;-15
2022/01/30 07:32:15;;;;;;;0.25;0.25;;;18.60;36.60;;;;;;5168172;27;48534;-15
2022/01/30 07:34:43;;;;;;;0.28;0.20;;;18.60;36.70;;;;;;5169146;27;46861;-14
2022/01/30 07:37:10;;;;;;;0.20;0.20;;;18.60;36.60;;;;;;5168981;27;46849;-15
2022/01/30 07:39:37;;;;;;;0.30;0.30;;;18.70;36.70;;;;;;5168663;27;47302;-14
2022/01/30 07:42:05;;;;;;;0.38;0.30;;;18.60;36.60;;;;;;5168422;27;47493;-14
2022/01/30 07:44:33;;;;;;;0.10;0.10;;;18.60;36.60;;;;;;5168853;27;46899;-15
2022/01/30 07:46:59;;;;;;;0.20;0.20;;;18.60;36.60;;;;;;5168468;27;47128;-14
2022/01/30 07:49:26;;;;;;;0.10;0.10;;;18.60;36.60;;;;;;5169029;27;46964;-16
2022/01/30 07:51:54;;;;;;;0.20;0.20;;;18.70;36.70;;;;;;5168457;27;47043;-14
2022/01/30 07:54:20;;;;;;;0.25;0.22;;;18.70;36.70;;;;;;5168427;27;46828;-15
2022/01/30 07:56:47;;;;;;;0.15;0.15;;;18.70;36.70;;;;;;5168588;27;47071;-14
2022/01/30 07:59:14;;;;;;;0.25;0.25;;;18.70;36.70;;;;;;5168819;27;46909;-14
2022/01/30 08:01:42;;;;;;;0.30;0.30;;;18.70;36.60;;;;;;5168210;27;47670;-14
2022/01/30 08:04:08;;;;;;;0.25;0.20;;;18.70;36.60;;;;;;5168206;27;47487;-14
2022/01/30 08:06:35;;;;;;;0.28;0.28;;;18.70;36.60;;;;;;5168170;27;46908;-14
2022/01/30 08:09:02;;;;;;;0.32;0.32;;;18.70;36.60;;;;;;5168874;27;47174;-15
2022/01/30 08:11:29;;;;;;;0.38;0.38;;;18.70;36.60;;;;;;5168213;27;48853;-14
2022/01/30 08:13:55;;;;;;;0.20;0.20;;;18.70;36.60;;;;;;5168518;27;47011;-15
2022/01/30 08:16:23;;;;;;;0.30;0.30;;;18.70;36.60;;;;;;5171826;27;47456;-15
2022/01/30 08:18:52;;;;;;;0.20;0.20;;;18.70;36.50;;;;;;5172081;27;47147;-15
2022/01/30 08:21:18;;;;;;;0.20;0.20;;;18.70;36.50;;;;;;5171842;27;46883;-15
2022/01/30 08:23:45;;;;;;;0.32;0.32;;;18.70;36.60;;;;;;5172055;27;46914;-15
2022/01/30 08:26:12;;;;;;;0.25;0.25;;;18.70;36.60;;;;;;5172177;27;46888;-15
2022/01/30 08:28:38;;;;;;;0.20;0.20;;;18.70;36.60;;;;;;5171945;27;46869;-15
2022/01/30 08:31:05;;;;;;;0.30;0.30;;;18.70;36.50;;;;;;5171922;27;48886;-15
2022/01/30 08:33:32;;;;;;;0.40;0.40;;;18.70;36.60;;;;;;5171248;27;46933;-15
2022/01/30 08:36:00;;;;;;;0.20;0.20;;;18.80;36.60;;;;;;5171949;27;46807;-14
2022/01/30 08:38:27;;;;;;;0.30;0.30;;;18.80;36.60;;;;;;5171821;27;46854;-14
2022/01/30 08:40:53;;;;;;;0.28;0.28;;;18.70;36.50;;;;;;5171712;27;48851;-16
2022/01/30 08:43:21;;;;;;;0.28;0.28;;;18.80;36.60;;;;;;5171310;27;46945;-15
2022/01/30 08:45:48;;;;;;;0.20;0.20;;;18.80;36.60;;;;;;5171546;27;46873;-15
2022/01/30 08:48:15;;;;;;;0.20;0.20;;;18.80;36.60;;;;;;5171756;27;46890;-15
2022/01/30 08:50:42;;;;;;;0.40;0.40;;;18.80;36.60;;;;;;5171635;27;48031;-16
2022/01/30 08:53:10;;;;;;;0.20;0.20;;;18.80;36.60;;;;;;5171550;27;46913;-14
2022/01/30 08:55:36;;;;;;;0.20;0.20;;;18.80;36.60;;;;;;5171638;27;46947;-15
2022/01/30 08:58:07;;;;;;;0.32;0.32;;;18.80;36.60;;;;;;5171621;27;46937;-15
2022/01/30 09:00:34;;;;;;;0.20;0.20;;;18.80;36.60;;;;;;5171235;27;49048;-14
2022/01/30 09:03:02;;;;;;;0.40;0.40;;;18.80;36.60;;;;;;5170941;27;46904;-15
2022/01/30 09:05:30;;;;;;;0.30;0.30;;;18.80;36.60;;;;;;5171266;27;46840;-15
2022/01/30 09:07:56;;;;;;;0.15;0.15;;;18.80;36.60;;;;;;5171319;27;46784;-15
2022/01/30 09:10:24;;;;;;;0.38;0.38;;;18.80;36.60;;;;;;5171323;27;48398;-16
2022/01/30 09:12:51;;;;;;;0.30;0.30;;;18.80;36.60;;;;;;5171005;27;46859;-15
2022/01/30 09:15:18;;;;;;;0.55;0.38;;;18.80;36.50;;;;;;5171343;27;46871;-15
2022/01/30 09:17:45;;;;;;;0.22;0.22;;;18.80;36.50;;;;;;5170983;27;46973;-14
2022/01/30 09:20:12;;;;;;;0.40;0.40;;;18.90;36.60;;;;;;5170783;27;46840;-15
2022/01/30 09:22:39;;;;;;;0.20;0.20;;;18.80;36.70;;;;;;5170747;27;47034;-14
2022/01/30 09:25:06;;;;;;;0.20;0.20;;;18.90;36.70;;;;;;5170799;27;46730;-15
2022/01/30 09:27:34;;;;;;;0.30;0.30;;;18.80;36.70;;;;;;5171006;27;46914;-15
2022/01/30 09:30:01;;;;;;;0.30;0.30;;;18.80;36.70;;;;;;5170890;27;48792;-15
2022/01/30 09:32:28;;;;;;;0.20;0.20;;;18.80;36.70;;;;;;5170538;27;47198;-14
2022/01/30 09:34:56;;;;;;;0.15;0.15;;;18.80;36.70;;;;;;5170859;27;46812;-16
2022/01/30 09:37:23;;;;;;;0.38;0.30;;;18.80;37.40;;;;;;5171053;27;46955;-15
2022/01/30 09:39:50;;;;;;;0.20;0.20;;;18.80;36.80;;;;;;5170480;27;47835;-16
2022/01/30 09:42:17;;;;;;;0.40;0.40;;;18.80;36.80;;;;;;5170236;27;47483;-14
2022/01/30 09:44:45;;;;;;;0.32;0.32;;;18.80;36.90;;;;;;5170777;27;46858;-14
2022/01/30 09:47:12;;;;;;;0.30;0.30;;;18.80;36.90;;;;;;5170995;27;46840;-15
2022/01/30 09:49:40;;;;;;;0.30;0.30;;;18.80;36.90;;;;;;5170663;27;48130;-15
2022/01/30 09:52:08;;;;;;;0.30;0.30;;;18.80;36.90;;;;;;5170341;27;46812;-15
2022/01/30 09:54:35;;;;;;;0.32;0.32;;;18.80;36.90;;;;;;5170662;27;46884;-14
2022/01/30 09:57:01;;;;;;;0.40;0.40;;;18.80;36.90;;;;;;5170204;27;46893;-15
2022/01/30 09:59:28;;;;;;;0.40;0.40;;;18.80;36.90;;;;;;5170682;27;47493;-15
2022/01/30 10:01:56;;;;;;;0.30;0.30;;;18.80;36.90;;;;;;5170117;27;47016;-14
2022/01/30 10:04:23;;;;;;;0.40;0.30;;;18.80;36.90;;;;;;5170590;27;46943;-14
2022/01/30 10:06:59;;;;;;;0.40;0.40;;;18.80;36.90;;;;;;5170153;27;47006;-14
2022/01/30 10:09:29;;;;;;;0.40;0.40;;;18.80;36.90;;;;;;5170378;27;47078;-14
2022/01/30 10:12:15;;;;;;;0.30;0.30;;;18.80;36.90;;;;;;5169979;27;46848;-15
2022/01/30 10:14:53;;;;;;;0.20;0.20;;;18.80;37.00;;;;;;5170167;27;46988;-14
2022/01/30 10:17:29;;;;;;;0.40;0.40;;;18.80;37.00;;;;;;5170111;27;46890;-15
2022/01/30 10:20:05;;;;;;;1.23;0.30;;;18.80;37.20;;;;;;5170163;27;47653;-14
2022/01/30 10:22:32;;;;;;;0.30;0.30;;;18.80;37.40;;;;;;5169536;27;46814;-15
2022/01/30 10:24:58;;;;;;;0.80;0.30;;;18.80;37.30;;;;;;5170113;27;47018;-15
2022/01/30 10:27:26;;;;;;;0.20;0.20;;;18.80;37.30;;;;;;5170205;27;46891;-14
2022/01/30 10:29:58;;;;;;;0.30;0.30;;;18.80;37.30;;;;;;5170000;27;47840;-14
2022/01/30 10:32:24;;;;;;;0.50;0.40;;;18.80;37.30;;;;;;5169522;27;46848;-15
2022/01/30 10:34:58;;;;;;;0.40;0.40;;;18.80;37.30;;;;;;5169696;27;47060;-14
2022/01/30 10:37:25;;;;;;;1.85;0.40;;;18.80;37.30;;;;;;5169282;27;46969;-15
2022/01/30 10:40:06;;;;;;;0.38;0.38;;;18.90;37.30;;;;;;5169718;27;49061;-15
2022/01/30 10:42:33;;;;;;;0.50;0.50;;;18.90;37.30;;;;;;5169935;27;46892;-15
2022/01/30 10:45:00;;;;;;;0.32;0.32;;;18.90;37.30;;;;;;5169907;27;46885;-14
2022/01/30 10:47:29;;;;;;;0.40;0.40;;;18.80;37.40;;;;;;5169946;27;47324;-15
2022/01/30 10:49:57;;;;;;;0.40;0.40;;;18.80;37.40;;;;;;5169424;27;48179;-14
2022/01/30 10:52:24;;;;;;;2.58;0.35;;;18.80;37.50;;;;;;5169249;27;47022;-15
2022/01/30 10:54:51;;;;;;;0.82;0.40;;;18.70;37.50;;;;;;5169322;27;46936;-14
2022/01/30 10:57:18;;;;;;;0.93;0.40;;;18.70;37.60;;;;;;5169760;27;47129;-15
2022/01/30 10:59:52;;;;;;;1.48;0.40;;;18.70;37.70;;;;;;5169626;27;48062;-14
2022/01/30 11:02:20;;;;;;;3.65;0.30;;;18.70;37.70;;;;;;5169540;27;46994;-14
2022/01/30 11:04:48;;;;;;;0.52;0.52;;;18.70;37.70;;;;;;5169781;27;46757;-15
2022/01/30 11:07:19;;;;;;;1.30;0.60;;;18.70;37.70;;;;;;5169229;27;46880;-14
2022/01/30 11:09:55;;;;;;;0.30;0.30;;;18.70;37.70;;;;;;5169225;27;47903;-15
2022/01/30 11:12:31;;;;;;;1.70;0.68;;;18.80;37.70;;;;;;5169153;27;47161;-14
2022/01/30 11:15:15;;;;;;;6.78;0.77;;;18.80;37.90;;;;;;5169377;27;46908;-14
2022/01/30 11:17:43;;;;;;;1.83;0.70;;;18.90;38.20;;;;;;5169322;27;46880;-14
2022/01/30 11:20:11;;;;;;;0.30;0.30;;;19.00;38.00;;;;;;5169095;27;47935;-13
2022/01/30 11:22:39;;;;;;;6.18;0.82;;;19.00;37.60;;;;;;5168248;27;47473;-15
2022/01/30 11:25:06;;;;;;;5.60;0.60;;;19.10;37.80;;;;;;5168441;27;46789;-15
2022/01/30 11:27:33;;;;;;;3.33;0.63;;;19.20;37.60;;;;;;5163174;27;47809;-15
2022/01/30 11:30:00;;;;;;;1.30;0.40;;;19.30;37.40;;;;;;5168522;27;48836;-14
2022/01/30 11:32:28;;;;;;;2.00;0.68;;;19.40;37.10;;;;;;5167140;27;47013;-15
2022/01/30 11:34:55;;;;;;;0.88;0.45;;;19.50;37.10;;;;;;5168689;27;46812;-16
2022/01/30 11:37:23;;;;;;;0.50;0.50;;;19.60;36.80;;;;;;5167967;27;47101;-14
2022/01/30 11:39:52;;;;;;;2.58;0.70;;;19.70;36.90;;;;;;5167943;27;47874;-16
2022/01/30 11:42:20;;;;;;;1.88;0.60;;;19.60;37.00;;;;;;5167697;27;47232;-14
2022/01/30 11:44:47;;;;;;;1.10;0.65;;;19.50;37.20;;;;;;5168100;27;46854;-14
2022/01/30 11:47:21;;;;;;;3.13;0.80;;;19.50;37.40;;;;;;5168090;27;47193;-16
2022/01/30 11:50:06;;;;;;;5.40;3.20;;;19.40;37.30;;;;;;5167166;27;49034;-15
2022/01/30 11:52:59;;;;;;;2.75;1.15;;;19.60;37.90;;;;;;5168016;27;46854;-15
2022/01/30 11:55:49;;;;;;;2.30;0.90;;;19.60;37.30;;;;;;5167984;27;46993;-15
2022/01/30 11:58:41;;;;;;;3.97;0.90;;;19.60;37.30;;;;;;5168027;27;47211;-16
2022/01/30 12:01:38;;;;;;;6.78;1.05;;;19.50;37.50;;;;;;5167728;27;47988;-17
2022/01/30 12:04:15;;;;;;;4.78;1.15;;;19.40;37.90;;;;;;5168283;27;46968;-14
2022/01/30 12:06:43;;;;;;;1.60;0.95;;;19.30;37.80;;;;;;5163861;27;46956;-14
2022/01/30 12:09:22;;;;;;;4.22;1.10;;;19.30;37.90;;;;;;5168274;27;46873;-15
2022/01/30 12:11:58;;;;;;;1.75;1.17;;;19.30;38.20;;;;;;5167351;27;49061;-15
2022/01/30 12:14:45;;;;;;;4.28;1.05;;;19.40;37.80;;;;;;5167682;27;47166;-14
2022/01/30 12:17:11;;;;;;;1.90;1.00;;;19.40;38.00;;;;;;5167612;27;46898;-14
2022/01/30 12:20:00;;;;;;;5.22;1.23;;;19.30;38.00;;;;;;5168015;27;46904;-16
2022/01/30 12:22:41;;;;;;;5.15;1.00;;;19.30;38.30;;;;;;5167137;27;46871;-15
2022/01/30 12:25:23;;;;;;;4.47;1.10;;;19.30;38.20;;;;;;5167930;27;46913;-15
2022/01/30 12:27:54;;;;;;;3.30;1.70;;;19.30;38.40;;;;;;5159338;27;46860;-16
2022/01/30 12:30:38;;;;;;;2.65;1.08;;;19.20;38.40;;;;;;5167573;27;46995;-21
2022/01/30 12:33:39;;;;;;;2.75;1.40;;;19.20;38.30;;;;;;5167234;27;49092;-14
2022/01/30 12:36:12;;;;;;;3.47;1.38;;;19.20;38.60;;;;;;5167520;27;46924;-15
2022/01/30 12:38:39;;;;;;;2.60;1.40;;;19.10;38.70;;;;;;5151307;27;47117;-17
2022/01/30 12:41:14;;;;;;;6.68;1.73;;;19.10;38.70;;;;;;5167474;27;47110;-17
2022/01/30 12:43:42;;;;;;;3.50;1.60;;;19.20;38.70;;;;;;5167354;27;49077;-18
2022/01/30 12:46:09;;;;;;;3.30;1.70;;;19.20;38.60;;;;;;5167157;27;47001;-17
2022/01/30 12:48:36;;;;;;;3.40;2.10;;;19.20;38.50;;;;;;5150168;27;46808;-18
2022/01/30 12:51:07;;;;;;;4.65;1.55;;;19.20;38.80;;;;;;5167433;27;46897;-16
2022/01/30 12:53:36;;;;;;;5.70;1.90;;;19.20;38.60;;;;;;5167555;27;48228;-13
2022/01/30 12:56:03;;;;;;;2.00;1.80;;;19.20;38.70;;;;;;5167319;27;46886;-15
2022/01/30 12:58:33;;;;;;;1.75;1.65;;;19.10;38.70;;;;;;5167066;27;46924;-16
2022/01/30 13:01:11;;;;;;;5.85;1.80;;;19.10;38.80;;;;;;5168842;27;47323;-15
2022/01/30 13:03:38;;;;;;;9.20;1.67;;;19.00;38.80;;;;;;5170907;27;48116;-23
2022/01/30 13:06:04;;;;;;;6.00;2.30;;;19.00;38.90;;;;;;5170698;27;46960;-15
2022/01/30 13:08:48;;;;;;;2.40;1.70;;;19.00;39.10;;;;;;5170818;27;46917;-16
2022/01/30 13:11:19;;;;;;;2.50;1.70;;;18.90;38.90;;;;;;5171497;27;47031;-14
2022/01/30 13:13:55;;;;;;;1.95;1.65;;;18.90;38.90;;;;;;5169744;27;48920;-15
2022/01/30 13:16:24;;;;;;;1.88;1.50;;;18.90;38.90;;;;;;5170402;27;47011;-14
2022/01/30 13:18:50;;;;;;;3.28;1.67;;;19.00;38.90;;;;;;5169477;27;46888;-15
2022/01/30 13:21:25;;;;;;;2.75;1.50;;;19.20;38.40;;;;;;5170460;27;46968;-16
2022/01/30 13:23:51;;;;;;;3.42;1.65;;;19.30;38.10;;;;;;5170815;27;48342;-15
2022/01/30 13:26:35;;;;;;;1.95;1.60;;;19.40;38.10;;;;;;5170523;27;47052;-15
2022/01/30 13:29:03;;;;;;;2.60;1.50;;;19.30;37.90;;;;;;5170566;27;46900;-15
2022/01/30 13:31:32;;;;;;;2.45;1.42;;;19.30;37.80;;;;;;5170938;27;47038;-15